sensor_id;sensor_type;location;lat;lon;timestamp;temperature;humidity
6373;DHT22;3219;51.362;7.074;2023-04-15T00:00:06;8.30;99.90
6373;DHT22;3219;51.362;7.074;2023-04-15T00:02:32;8.20;99.90
6373;DHT22;3219;51.362;7.074;2023-04-15T00:04:59;8.20;99.90
6373;DHT22;3219;51.362;7.074;2023-04-15T00:07:26;8.30;99.90
6373;DHT22;3219;51.362;7.074;2023-04-15T00:09:55;8.30;99.90
6373;DHT22;3219;51.362;7.074;2023-04-15T00:12:22;8.30;99.90
6373;DHT22;3219;51.362;7.074;2023-04-15T00:14:49;8.40;99.90
6373;DHT22;3219;51.362;7.074;2023-04-15T00:17:16;8.30;99.90
6373;DHT22;3219;51.362;7.074;2023-04-15T00:19:43;8.30;99.90
6373;DHT22;3219;51.362;7.074;2023-04-15T00:22:10;8.20;99.90
6373;DHT22;3219;51.362;7.074;2023-04-15T00:24:37;8.20;99.90
6373;DHT22;3219;51.362;7.074;2023-04-15T00:27:05;8.10;99.90
6373;DHT22;3219;51.362;7.074;2023-04-15T00:29:32;8.00;99.90
6373;DHT22;3219;51.362;7.074;2023-04-15T00:32:00;8.00;99.90
6373;DHT22;3219;51.362;7.074;2023-04-15T00:34:27;7.90;99.90
6373;DHT22;3219;51.362;7.074;2023-04-15T00:36:54;7.80;99.90
6373;DHT22;3219;51.362;7.074;2023-04-15T00:39:21;7.80;99.90
6373;DHT22;3219;51.362;7.074;2023-04-15T00:41:48;7.80;99.90
6373;DHT22;3219;51.362;7.074;2023-04-15T00:44:16;7.70;99.90
6373;DHT22;3219;51.362;7.074;2023-04-15T00:46:44;7.70;99.90
6373;DHT22;3219;51.362;7.074;2023-04-15T00:49:12;7.70;99.90
6373;DHT22;3219;51.362;7.074;2023-04-15T00:51:39;7.70;99.90
6373;DHT22;3219;51.362;7.074;2023-04-15T00:54:05;7.80;99.90
6373;DHT22;3219;51.362;7.074;2023-04-15T00:56:35;7.80;99.90
6373;DHT22;3219;51.362;7.074;2023-04-15T00:59:03;7.80;99.90
6373;DHT22;3219;51.362;7.074;2023-04-15T01:01:33;7.80;99.90
6373;DHT22;3219;51.362;7.074;2023-04-15T01:04:01;7.70;99.90
6373;DHT22;3219;51.362;7.074;2023-04-15T01:06:29;7.70;99.90
6373;DHT22;3219;51.362;7.074;2023-04-15T01:08:57;7.70;99.90
6373;DHT22;3219;51.362;7.074;2023-04-15T01:11:24;7.70;99.90
6373;DHT22;3219;51.362;7.074;2023-04-15T01:13:51;7.80;99.90
6373;DHT22;3219;51.362;7.074;2023-04-15T01:16:18;7.80;99.90
6373;DHT22;3219;51.362;7.074;2023-04-15T01:18:47;7.80;99.90
6373;DHT22;3219;51.362;7.074;2023-04-15T01:21:14;7.80;99.90
6373;DHT22;3219;51.362;7.074;2023-04-15T01:23:43;7.80;99.90
6373;DHT22;3219;51.362;7.074;2023-04-15T01:26:13;7.70;99.90
6373;DHT22;3219;51.362;7.074;2023-04-15T01:28:41;7.50;99.90
6373;DHT22;3219;51.362;7.074;2023-04-15T01:31:08;7.40;99.90
6373;DHT22;3219;51.362;7.074;2023-04-15T01:33:36;7.30;99.90
6373;DHT22;3219;51.362;7.074;2023-04-15T01:36:04;7.30;99.90
6373;DHT22;3219;51.362;7.074;2023-04-15T01:38:31;7.20;99.90
6373;DHT22;3219;51.362;7.074;2023-04-15T01:40:58;7.20;99.90
6373;DHT22;3219;51.362;7.074;2023-04-15T01:43:26;7.20;99.90
6373;DHT22;3219;51.362;7.074;2023-04-15T01:45:53;7.10;99.90
6373;DHT22;3219;51.362;7.074;2023-04-15T01:48:21;7.10;99.90
6373;DHT22;3219;51.362;7.074;2023-04-15T01:50:47;7.10;99.90
6373;DHT22;3219;51.362;7.074;2023-04-15T01:53:14;7.00;99.90
6373;DHT22;3219;51.362;7.074;2023-04-15T01:55:41;7.00;99.90
6373;DHT22;3219;51.362;7.074;2023-04-15T01:58:08;7.00;99.90
6373;DHT22;3219;51.362;7.074;2023-04-15T02:00:36;7.00;99.90
6373;DHT22;3219;51.362;7.074;2023-04-15T02:03:03;6.90;99.90
6373;DHT22;3219;51.362;7.074;2023-04-15T02:05:31;6.90;99.90
6373;DHT22;3219;51.362;7.074;2023-04-15T02:07:58;7.00;99.90
6373;DHT22;3219;51.362;7.074;2023-04-15T02:10:25;7.00;99.90
6373;DHT22;3219;51.362;7.074;2023-04-15T02:12:53;7.10;99.90
6373;DHT22;3219;51.362;7.074;2023-04-15T02:15:19;7.10;99.90
6373;DHT22;3219;51.362;7.074;2023-04-15T02:17:48;7.10;99.90
6373;DHT22;3219;51.362;7.074;2023-04-15T02:20:18;7.10;99.90
6373;DHT22;3219;51.362;7.074;2023-04-15T02:22:45;7.10;99.90
6373;DHT22;3219;51.362;7.074;2023-04-15T02:25:13;7.10;99.90
6373;DHT22;3219;51.362;7.074;2023-04-15T02:27:41;7.10;99.90
6373;DHT22;3219;51.362;7.074;2023-04-15T02:30:08;7.10;99.90
6373;DHT22;3219;51.362;7.074;2023-04-15T02:32:36;7.10;99.90
6373;DHT22;3219;51.362;7.074;2023-04-15T02:35:05;7.10;99.90
6373;DHT22;3219;51.362;7.074;2023-04-15T02:37:35;7.10;99.90
6373;DHT22;3219;51.362;7.074;2023-04-15T02:40:07;7.20;99.90
6373;DHT22;3219;51.362;7.074;2023-04-15T02:42:34;7.10;99.90
6373;DHT22;3219;51.362;7.074;2023-04-15T02:45:01;7.10;99.90
6373;DHT22;3219;51.362;7.074;2023-04-15T02:47:27;7.10;99.90
6373;DHT22;3219;51.362;7.074;2023-04-15T02:49:54;7.00;99.90
6373;DHT22;3219;51.362;7.074;2023-04-15T02:52:24;7.00;99.90
6373;DHT22;3219;51.362;7.074;2023-04-15T02:54:51;7.00;99.90
6373;DHT22;3219;51.362;7.074;2023-04-15T02:57:18;7.00;99.90
6373;DHT22;3219;51.362;7.074;2023-04-15T02:59:45;6.90;99.90
6373;DHT22;3219;51.362;7.074;2023-04-15T03:02:11;6.90;99.90
6373;DHT22;3219;51.362;7.074;2023-04-15T03:04:38;7.00;99.90
6373;DHT22;3219;51.362;7.074;2023-04-15T03:07:05;7.00;99.90
6373;DHT22;3219;51.362;7.074;2023-04-15T03:09:33;6.90;99.90
6373;DHT22;3219;51.362;7.074;2023-04-15T03:12:00;6.90;99.90
6373;DHT22;3219;51.362;7.074;2023-04-15T03:14:27;6.80;99.90
6373;DHT22;3219;51.362;7.074;2023-04-15T03:16:54;6.80;99.90
6373;DHT22;3219;51.362;7.074;2023-04-15T03:19:21;6.90;99.90
6373;DHT22;3219;51.362;7.074;2023-04-15T03:21:47;6.80;99.90
6373;DHT22;3219;51.362;7.074;2023-04-15T03:24:14;6.90;99.90
6373;DHT22;3219;51.362;7.074;2023-04-15T03:26:42;6.70;99.90
6373;DHT22;3219;51.362;7.074;2023-04-15T03:29:09;6.80;99.90
6373;DHT22;3219;51.362;7.074;2023-04-15T03:31:36;6.80;99.90
6373;DHT22;3219;51.362;7.074;2023-04-15T03:34:02;6.80;99.90
6373;DHT22;3219;51.362;7.074;2023-04-15T03:36:30;6.80;99.90
6373;DHT22;3219;51.362;7.074;2023-04-15T03:38:58;6.80;99.90
6373;DHT22;3219;51.362;7.074;2023-04-15T03:41:26;6.80;99.90
6373;DHT22;3219;51.362;7.074;2023-04-15T03:43:54;6.70;99.90
6373;DHT22;3219;51.362;7.074;2023-04-15T03:46:21;6.70;99.90
6373;DHT22;3219;51.362;7.074;2023-04-15T03:48:47;6.70;99.90
6373;DHT22;3219;51.362;7.074;2023-04-15T03:51:14;6.60;99.90
6373;DHT22;3219;51.362;7.074;2023-04-15T03:53:41;6.60;99.90
6373;DHT22;3219;51.362;7.074;2023-04-15T03:56:08;6.60;99.90
6373;DHT22;3219;51.362;7.074;2023-04-15T03:58:34;6.60;99.90
6373;DHT22;3219;51.362;7.074;2023-04-15T04:01:03;6.60;99.90
6373;DHT22;3219;51.362;7.074;2023-04-15T04:03:30;6.60;99.90
6373;DHT22;3219;51.362;7.074;2023-04-15T04:05:58;6.60;99.90
6373;DHT22;3219;51.362;7.074;2023-04-15T04:08:25;6.60;99.90
6373;DHT22;3219;51.362;7.074;2023-04-15T04:10:52;6.50;99.90
6373;DHT22;3219;51.362;7.074;2023-04-15T04:13:18;6.50;99.90
6373;DHT22;3219;51.362;7.074;2023-04-15T04:15:45;6.50;99.90
6373;DHT22;3219;51.362;7.074;2023-04-15T04:18:13;6.40;99.90
6373;DHT22;3219;51.362;7.074;2023-04-15T04:20:40;6.40;99.90
6373;DHT22;3219;51.362;7.074;2023-04-15T04:23:07;6.30;99.90
6373;DHT22;3219;51.362;7.074;2023-04-15T04:25:34;6.30;99.90
6373;DHT22;3219;51.362;7.074;2023-04-15T04:28:00;6.30;99.90
6373;DHT22;3219;51.362;7.074;2023-04-15T04:30:27;6.30;99.90
6373;DHT22;3219;51.362;7.074;2023-04-15T04:32:54;6.20;99.90
6373;DHT22;3219;51.362;7.074;2023-04-15T04:35:23;6.20;99.90
6373;DHT22;3219;51.362;7.074;2023-04-15T04:37:50;6.10;99.90
6373;DHT22;3219;51.362;7.074;2023-04-15T04:40:18;6.10;99.90
6373;DHT22;3219;51.362;7.074;2023-04-15T04:42:45;6.00;99.90
6373;DHT22;3219;51.362;7.074;2023-04-15T04:45:11;5.90;99.90
6373;DHT22;3219;51.362;7.074;2023-04-15T04:47:38;5.80;99.90
6373;DHT22;3219;51.362;7.074;2023-04-15T04:50:06;5.80;99.90
6373;DHT22;3219;51.362;7.074;2023-04-15T04:52:35;5.90;99.90
6373;DHT22;3219;51.362;7.074;2023-04-15T04:55:01;5.90;99.90
6373;DHT22;3219;51.362;7.074;2023-04-15T04:57:28;6.00;99.90
6373;DHT22;3219;51.362;7.074;2023-04-15T04:59:55;6.10;99.90
6373;DHT22;3219;51.362;7.074;2023-04-15T05:02:22;6.00;99.90
6373;DHT22;3219;51.362;7.074;2023-04-15T05:04:51;6.00;99.90
6373;DHT22;3219;51.362;7.074;2023-04-15T05:07:19;6.00;99.90
6373;DHT22;3219;51.362;7.074;2023-04-15T05:09:47;6.00;99.90
6373;DHT22;3219;51.362;7.074;2023-04-15T05:12:14;6.00;99.90
6373;DHT22;3219;51.362;7.074;2023-04-15T05:14:40;6.00;99.90
6373;DHT22;3219;51.362;7.074;2023-04-15T05:17:07;6.00;99.90
6373;DHT22;3219;51.362;7.074;2023-04-15T05:19:34;6.00;99.90
6373;DHT22;3219;51.362;7.074;2023-04-15T05:22:01;6.10;99.90
6373;DHT22;3219;51.362;7.074;2023-04-15T05:24:28;6.10;99.90
6373;DHT22;3219;51.362;7.074;2023-04-15T05:26:56;6.10;99.90
6373;DHT22;3219;51.362;7.074;2023-04-15T05:29:23;6.10;99.90
6373;DHT22;3219;51.362;7.074;2023-04-15T05:31:49;6.10;99.90
6373;DHT22;3219;51.362;7.074;2023-04-15T05:34:16;6.10;99.90
6373;DHT22;3219;51.362;7.074;2023-04-15T05:36:43;6.10;99.90
6373;DHT22;3219;51.362;7.074;2023-04-15T05:39:10;6.10;99.90
6373;DHT22;3219;51.362;7.074;2023-04-15T05:41:37;6.10;99.90
6373;DHT22;3219;51.362;7.074;2023-04-15T05:44:05;6.20;99.90
6373;DHT22;3219;51.362;7.074;2023-04-15T05:46:32;6.40;99.90
6373;DHT22;3219;51.362;7.074;2023-04-15T05:48:58;6.60;99.90
6373;DHT22;3219;51.362;7.074;2023-04-15T05:51:25;6.80;99.90
6373;DHT22;3219;51.362;7.074;2023-04-15T05:53:52;6.80;99.90
6373;DHT22;3219;51.362;7.074;2023-04-15T05:56:19;6.90;99.90
6373;DHT22;3219;51.362;7.074;2023-04-15T05:58:45;6.90;99.90
6373;DHT22;3219;51.362;7.074;2023-04-15T06:01:13;6.90;99.90
6373;DHT22;3219;51.362;7.074;2023-04-15T06:03:40;7.00;99.90
6373;DHT22;3219;51.362;7.074;2023-04-15T06:06:08;7.10;99.90
6373;DHT22;3219;51.362;7.074;2023-04-15T06:08:34;7.40;99.90
6373;DHT22;3219;51.362;7.074;2023-04-15T06:11:01;7.50;99.90
6373;DHT22;3219;51.362;7.074;2023-04-15T06:13:28;7.80;99.90
6373;DHT22;3219;51.362;7.074;2023-04-15T06:15:55;8.20;99.90
6373;DHT22;3219;51.362;7.074;2023-04-15T06:18:23;8.80;99.90
6373;DHT22;3219;51.362;7.074;2023-04-15T06:20:50;9.40;99.90
6373;DHT22;3219;51.362;7.074;2023-04-15T06:23:17;10.40;99.90
6373;DHT22;3219;51.362;7.074;2023-04-15T06:25:43;11.20;99.90
6373;DHT22;3219;51.362;7.074;2023-04-15T06:28:10;12.20;99.90
6373;DHT22;3219;51.362;7.074;2023-04-15T06:30:37;13.00;99.90
6373;DHT22;3219;51.362;7.074;2023-04-15T06:33:04;13.80;99.90
6373;DHT22;3219;51.362;7.074;2023-04-15T06:35:33;14.30;99.90
6373;DHT22;3219;51.362;7.074;2023-04-15T06:37:59;14.80;99.90
6373;DHT22;3219;51.362;7.074;2023-04-15T06:40:26;15.20;99.90
6373;DHT22;3219;51.362;7.074;2023-04-15T06:42:54;15.40;99.90
6373;DHT22;3219;51.362;7.074;2023-04-15T06:45:20;15.30;99.90
6373;DHT22;3219;51.362;7.074;2023-04-15T06:47:47;15.20;99.90
6373;DHT22;3219;51.362;7.074;2023-04-15T06:50:14;15.20;99.90
6373;DHT22;3219;51.362;7.074;2023-04-15T06:52:42;15.10;99.90
6373;DHT22;3219;51.362;7.074;2023-04-15T06:55:09;15.40;99.90
6373;DHT22;3219;51.362;7.074;2023-04-15T06:57:35;15.20;99.90
6373;DHT22;3219;51.362;7.074;2023-04-15T07:00:03;14.80;99.90
6373;DHT22;3219;51.362;7.074;2023-04-15T07:02:31;14.50;99.90
6373;DHT22;3219;51.362;7.074;2023-04-15T07:04:58;14.10;99.90
6373;DHT22;3219;51.362;7.074;2023-04-15T07:07:25;13.60;99.90
6373;DHT22;3219;51.362;7.074;2023-04-15T07:09:53;12.90;99.90
6373;DHT22;3219;51.362;7.074;2023-04-15T07:12:20;12.60;99.90
6373;DHT22;3219;51.362;7.074;2023-04-15T07:14:46;12.40;99.90
6373;DHT22;3219;51.362;7.074;2023-04-15T07:17:13;12.20;99.90
6373;DHT22;3219;51.362;7.074;2023-04-15T07:19:40;12.20;99.90
6373;DHT22;3219;51.362;7.074;2023-04-15T07:22:07;11.90;99.90
6373;DHT22;3219;51.362;7.074;2023-04-15T07:24:34;11.70;99.90
6373;DHT22;3219;51.362;7.074;2023-04-15T07:27:02;11.20;99.90
6373;DHT22;3219;51.362;7.074;2023-04-15T07:29:29;10.60;99.90
6373;DHT22;3219;51.362;7.074;2023-04-15T07:31:55;10.20;99.90
6373;DHT22;3219;51.362;7.074;2023-04-15T07:34:22;9.70;99.90
6373;DHT22;3219;51.362;7.074;2023-04-15T07:36:49;9.40;99.90
6373;DHT22;3219;51.362;7.074;2023-04-15T07:39:16;9.20;99.90
6373;DHT22;3219;51.362;7.074;2023-04-15T07:41:43;9.10;99.90
6373;DHT22;3219;51.362;7.074;2023-04-15T07:44:12;9.00;99.90
6373;DHT22;3219;51.362;7.074;2023-04-15T07:46:39;8.90;99.90
6373;DHT22;3219;51.362;7.074;2023-04-15T07:49:06;9.00;99.90
6373;DHT22;3219;51.362;7.074;2023-04-15T07:51:33;9.10;99.90
6373;DHT22;3219;51.362;7.074;2023-04-15T07:53:59;9.20;99.90
6373;DHT22;3219;51.362;7.074;2023-04-15T07:56:27;9.40;99.90
6373;DHT22;3219;51.362;7.074;2023-04-15T07:58:54;9.40;99.90
6373;DHT22;3219;51.362;7.074;2023-04-15T08:01:22;9.60;99.90
6373;DHT22;3219;51.362;7.074;2023-04-15T08:03:49;9.80;99.90
6373;DHT22;3219;51.362;7.074;2023-04-15T08:06:16;9.80;99.90
6373;DHT22;3219;51.362;7.074;2023-04-15T08:08:43;9.90;99.90
6373;DHT22;3219;51.362;7.074;2023-04-15T08:11:11;10.10;99.90
6373;DHT22;3219;51.362;7.074;2023-04-15T08:13:38;10.20;99.90
6373;DHT22;3219;51.362;7.074;2023-04-15T08:16:17;10.10;99.90
6373;DHT22;3219;51.362;7.074;2023-04-15T08:18:46;10.10;99.90
6373;DHT22;3219;51.362;7.074;2023-04-15T08:21:13;10.10;99.90
6373;DHT22;3219;51.362;7.074;2023-04-15T08:23:40;10.10;99.90
6373;DHT22;3219;51.362;7.074;2023-04-15T08:26:07;10.20;99.90
6373;DHT22;3219;51.362;7.074;2023-04-15T08:28:34;10.20;99.90
6373;DHT22;3219;51.362;7.074;2023-04-15T08:31:01;10.30;99.90
6373;DHT22;3219;51.362;7.074;2023-04-15T08:33:28;10.50;99.90
6373;DHT22;3219;51.362;7.074;2023-04-15T08:35:56;10.50;99.90
6373;DHT22;3219;51.362;7.074;2023-04-15T08:38:23;10.70;99.90
6373;DHT22;3219;51.362;7.074;2023-04-15T08:40:50;11.00;99.90
6373;DHT22;3219;51.362;7.074;2023-04-15T08:43:20;11.10;99.90
6373;DHT22;3219;51.362;7.074;2023-04-15T08:45:49;11.00;99.90
6373;DHT22;3219;51.362;7.074;2023-04-15T08:48:17;10.90;99.90
6373;DHT22;3219;51.362;7.074;2023-04-15T08:50:45;10.90;99.90
6373;DHT22;3219;51.362;7.074;2023-04-15T08:53:14;10.80;99.90
6373;DHT22;3219;51.362;7.074;2023-04-15T08:55:43;10.80;99.90
6373;DHT22;3219;51.362;7.074;2023-04-15T08:58:11;10.80;99.90
6373;DHT22;3219;51.362;7.074;2023-04-15T09:00:38;10.80;99.90
6373;DHT22;3219;51.362;7.074;2023-04-15T09:03:06;10.90;99.90
6373;DHT22;3219;51.362;7.074;2023-04-15T09:05:34;11.00;99.90
6373;DHT22;3219;51.362;7.074;2023-04-15T09:08:01;11.10;99.90
6373;DHT22;3219;51.362;7.074;2023-04-15T09:10:30;11.30;99.90
6373;DHT22;3219;51.362;7.074;2023-04-15T09:12:58;11.30;99.90
6373;DHT22;3219;51.362;7.074;2023-04-15T09:15:25;11.40;99.90
6373;DHT22;3219;51.362;7.074;2023-04-15T09:17:54;11.10;99.90
6373;DHT22;3219;51.362;7.074;2023-04-15T09:20:21;11.00;99.90
6373;DHT22;3219;51.362;7.074;2023-04-15T09:22:49;11.10;99.90
6373;DHT22;3219;51.362;7.074;2023-04-15T09:25:27;11.10;99.90
6373;DHT22;3219;51.362;7.074;2023-04-15T09:27:56;11.20;99.90
6373;DHT22;3219;51.362;7.074;2023-04-15T09:30:23;11.20;99.90
6373;DHT22;3219;51.362;7.074;2023-04-15T09:32:51;11.40;99.90
6373;DHT22;3219;51.362;7.074;2023-04-15T09:35:18;11.40;99.90
6373;DHT22;3219;51.362;7.074;2023-04-15T09:37:45;11.40;99.90
6373;DHT22;3219;51.362;7.074;2023-04-15T09:40:12;11.40;99.90
6373;DHT22;3219;51.362;7.074;2023-04-15T09:42:55;11.30;99.90
6373;DHT22;3219;51.362;7.074;2023-04-15T09:45:22;11.20;99.90
6373;DHT22;3219;51.362;7.074;2023-04-15T09:47:49;11.10;99.90
6373;DHT22;3219;51.362;7.074;2023-04-15T09:50:18;10.90;99.90
6373;DHT22;3219;51.362;7.074;2023-04-15T09:52:46;10.70;99.90
6373;DHT22;3219;51.362;7.074;2023-04-15T09:55:13;10.60;99.90
6373;DHT22;3219;51.362;7.074;2023-04-15T09:57:40;10.60;99.90
6373;DHT22;3219;51.362;7.074;2023-04-15T10:00:10;10.70;99.90
6373;DHT22;3219;51.362;7.074;2023-04-15T10:02:38;10.70;99.90
6373;DHT22;3219;51.362;7.074;2023-04-15T10:05:07;10.70;99.90
6373;DHT22;3219;51.362;7.074;2023-04-15T10:07:36;10.70;99.90
6373;DHT22;3219;51.362;7.074;2023-04-15T10:10:05;10.70;99.90
6373;DHT22;3219;51.362;7.074;2023-04-15T10:12:32;10.70;99.90
6373;DHT22;3219;51.362;7.074;2023-04-15T10:15:02;10.70;99.90
6373;DHT22;3219;51.362;7.074;2023-04-15T10:17:32;10.60;99.90
6373;DHT22;3219;51.362;7.074;2023-04-15T10:20:00;10.50;99.90
6373;DHT22;3219;51.362;7.074;2023-04-15T10:22:28;10.40;99.90
6373;DHT22;3219;51.362;7.074;2023-04-15T10:24:56;10.30;99.90
6373;DHT22;3219;51.362;7.074;2023-04-15T10:27:22;10.10;99.90
6373;DHT22;3219;51.362;7.074;2023-04-15T10:29:50;10.10;99.90
6373;DHT22;3219;51.362;7.074;2023-04-15T10:32:18;10.00;99.90
6373;DHT22;3219;51.362;7.074;2023-04-15T10:34:48;10.10;99.90
6373;DHT22;3219;51.362;7.074;2023-04-15T10:37:20;10.10;99.90
6373;DHT22;3219;51.362;7.074;2023-04-15T10:39:46;10.10;99.90
6373;DHT22;3219;51.362;7.074;2023-04-15T10:42:15;10.00;99.90
6373;DHT22;3219;51.362;7.074;2023-04-15T10:44:43;10.00;99.90
6373;DHT22;3219;51.362;7.074;2023-04-15T10:47:11;10.10;99.90
6373;DHT22;3219;51.362;7.074;2023-04-15T10:49:47;10.20;99.90
6373;DHT22;3219;51.362;7.074;2023-04-15T10:52:15;10.30;99.90
6373;DHT22;3219;51.362;7.074;2023-04-15T10:54:43;10.30;99.90
6373;DHT22;3219;51.362;7.074;2023-04-15T10:57:15;10.40;99.90
6373;DHT22;3219;51.362;7.074;2023-04-15T11:00:09;10.40;99.90
6373;DHT22;3219;51.362;7.074;2023-04-15T11:02:41;10.40;99.90
6373;DHT22;3219;51.362;7.074;2023-04-15T11:05:10;10.50;99.90
6373;DHT22;3219;51.362;7.074;2023-04-15T11:07:48;10.50;99.90
6373;DHT22;3219;51.362;7.074;2023-04-15T11:13:24;10.30;99.90
6373;DHT22;3219;51.362;7.074;2023-04-15T11:15:56;10.30;99.90
6373;DHT22;3219;51.362;7.074;2023-04-15T11:18:25;10.30;99.90
6373;DHT22;3219;51.362;7.074;2023-04-15T11:20:55;10.30;99.90
6373;DHT22;3219;51.362;7.074;2023-04-15T11:23:28;10.20;99.90
6373;DHT22;3219;51.362;7.074;2023-04-15T11:25:56;10.30;99.90
6373;DHT22;3219;51.362;7.074;2023-04-15T11:28:25;10.30;99.90
6373;DHT22;3219;51.362;7.074;2023-04-15T11:30:52;10.30;99.90
6373;DHT22;3219;51.362;7.074;2023-04-15T11:33:20;10.30;99.90
6373;DHT22;3219;51.362;7.074;2023-04-15T11:35:48;10.30;99.90
6373;DHT22;3219;51.362;7.074;2023-04-15T11:38:16;10.30;99.90
6373;DHT22;3219;51.362;7.074;2023-04-15T11:40:43;10.20;99.90
6373;DHT22;3219;51.362;7.074;2023-04-15T11:43:11;10.10;99.90
6373;DHT22;3219;51.362;7.074;2023-04-15T11:45:49;10.10;99.90
6373;DHT22;3219;51.362;7.074;2023-04-15T11:48:17;10.00;99.90
6373;DHT22;3219;51.362;7.074;2023-04-15T11:50:44;10.00;99.90
6373;DHT22;3219;51.362;7.074;2023-04-15T11:53:12;10.00;99.90
6373;DHT22;3219;51.362;7.074;2023-04-15T11:55:44;10.00;99.90
6373;DHT22;3219;51.362;7.074;2023-04-15T11:58:13;10.00;99.90
6373;DHT22;3219;51.362;7.074;2023-04-15T12:00:44;10.00;99.90
6373;DHT22;3219;51.362;7.074;2023-04-15T12:03:13;9.90;99.90
6373;DHT22;3219;51.362;7.074;2023-04-15T12:06:05;9.90;99.90
6373;DHT22;3219;51.362;7.074;2023-04-15T12:08:57;9.90;99.90
6373;DHT22;3219;51.362;7.074;2023-04-15T12:11:37;9.80;99.90
6373;DHT22;3219;51.362;7.074;2023-04-15T12:14:07;9.80;99.90
6373;DHT22;3219;51.362;7.074;2023-04-15T12:16:35;9.70;99.90
6373;DHT22;3219;51.362;7.074;2023-04-15T12:19:05;9.70;99.90
6373;DHT22;3219;51.362;7.074;2023-04-15T12:21:34;9.70;99.90
6373;DHT22;3219;51.362;7.074;2023-04-15T12:24:03;9.70;99.90
6373;DHT22;3219;51.362;7.074;2023-04-15T12:26:33;9.70;99.90
6373;DHT22;3219;51.362;7.074;2023-04-15T12:29:01;9.70;99.90
6373;DHT22;3219;51.362;7.074;2023-04-15T12:31:28;9.70;99.90
6373;DHT22;3219;51.362;7.074;2023-04-15T12:33:55;9.70;99.90
6373;DHT22;3219;51.362;7.074;2023-04-15T12:36:22;9.70;99.90
6373;DHT22;3219;51.362;7.074;2023-04-15T12:38:49;9.70;99.90
6373;DHT22;3219;51.362;7.074;2023-04-15T12:41:16;9.60;99.90
6373;DHT22;3219;51.362;7.074;2023-04-15T12:43:44;9.70;99.90
6373;DHT22;3219;51.362;7.074;2023-04-15T12:46:12;9.70;99.90
6373;DHT22;3219;51.362;7.074;2023-04-15T12:48:39;9.70;99.90
6373;DHT22;3219;51.362;7.074;2023-04-15T12:51:06;9.60;99.90
6373;DHT22;3219;51.362;7.074;2023-04-15T12:53:32;9.60;99.90
6373;DHT22;3219;51.362;7.074;2023-04-15T12:55:59;9.60;99.90
6373;DHT22;3219;51.362;7.074;2023-04-15T12:58:26;9.60;99.90
6373;DHT22;3219;51.362;7.074;2023-04-15T13:00:54;9.60;99.90
6373;DHT22;3219;51.362;7.074;2023-04-15T13:03:21;9.60;99.90
6373;DHT22;3219;51.362;7.074;2023-04-15T13:05:48;9.60;99.90
6373;DHT22;3219;51.362;7.074;2023-04-15T13:08:15;9.60;99.90
6373;DHT22;3219;51.362;7.074;2023-04-15T13:10:42;9.60;99.90
6373;DHT22;3219;51.362;7.074;2023-04-15T13:13:09;8.80;99.90
6373;DHT22;3219;51.362;7.074;2023-04-15T13:15:36;9.60;99.90
6373;DHT22;3219;51.362;7.074;2023-04-15T13:18:06;9.60;99.90
6373;DHT22;3219;51.362;7.074;2023-04-15T13:20:33;9.60;99.90
6373;DHT22;3219;51.362;7.074;2023-04-15T13:23:00;9.70;99.90
6373;DHT22;3219;51.362;7.074;2023-04-15T13:25:27;9.70;99.90
6373;DHT22;3219;51.362;7.074;2023-04-15T13:27:53;9.70;99.90
6373;DHT22;3219;51.362;7.074;2023-04-15T13:30:22;9.80;99.90
6373;DHT22;3219;51.362;7.074;2023-04-15T13:32:48;9.70;99.90
6373;DHT22;3219;51.362;7.074;2023-04-15T13:35:17;9.80;99.90
6373;DHT22;3219;51.362;7.074;2023-04-15T13:37:44;9.80;99.90
6373;DHT22;3219;51.362;7.074;2023-04-15T13:40:11;9.30;99.90
6373;DHT22;3219;51.362;7.074;2023-04-15T13:42:37;9.80;99.90
6373;DHT22;3219;51.362;7.074;2023-04-15T13:45:06;9.80;99.90
6373;DHT22;3219;51.362;7.074;2023-04-15T13:47:33;9.80;99.90
6373;DHT22;3219;51.362;7.074;2023-04-15T13:50:00;9.80;99.90
6373;DHT22;3219;51.362;7.074;2023-04-15T13:52:28;9.70;99.90
6373;DHT22;3219;51.362;7.074;2023-04-15T13:54:55;9.70;99.90
6373;DHT22;3219;51.362;7.074;2023-04-15T13:57:21;9.70;99.90
6373;DHT22;3219;51.362;7.074;2023-04-15T13:59:48;9.60;99.90
6373;DHT22;3219;51.362;7.074;2023-04-15T14:02:15;9.60;99.90
6373;DHT22;3219;51.362;7.074;2023-04-15T14:04:42;9.50;99.90
6373;DHT22;3219;51.362;7.074;2023-04-15T14:07:09;9.50;99.90
6373;DHT22;3219;51.362;7.074;2023-04-15T14:09:37;9.50;99.90
6373;DHT22;3219;51.362;7.074;2023-04-15T14:12:04;9.50;99.90
6373;DHT22;3219;51.362;7.074;2023-04-15T14:14:31;9.50;99.90
6373;DHT22;3219;51.362;7.074;2023-04-15T14:16:58;9.50;99.90
6373;DHT22;3219;51.362;7.074;2023-04-15T14:19:25;9.50;99.90
6373;DHT22;3219;51.362;7.074;2023-04-15T14:21:52;9.40;99.90
6373;DHT22;3219;51.362;7.074;2023-04-15T14:24:18;9.40;99.90
6373;DHT22;3219;51.362;7.074;2023-04-15T14:26:47;9.50;99.90
6373;DHT22;3219;51.362;7.074;2023-04-15T14:29:14;9.50;99.90
6373;DHT22;3219;51.362;7.074;2023-04-15T14:31:41;9.50;99.90
6373;DHT22;3219;51.362;7.074;2023-04-15T14:34:09;9.50;99.90
6373;DHT22;3219;51.362;7.074;2023-04-15T14:36:36;9.60;99.90
6373;DHT22;3219;51.362;7.074;2023-04-15T14:39:03;9.60;99.90
6373;DHT22;3219;51.362;7.074;2023-04-15T14:41:30;9.60;99.90
6373;DHT22;3219;51.362;7.074;2023-04-15T14:43:58;9.60;99.90
6373;DHT22;3219;51.362;7.074;2023-04-15T14:46:25;9.60;99.90
6373;DHT22;3219;51.362;7.074;2023-04-15T14:48:52;9.60;99.90
6373;DHT22;3219;51.362;7.074;2023-04-15T14:51:19;9.60;99.90
6373;DHT22;3219;51.362;7.074;2023-04-15T14:53:46;9.60;99.90
6373;DHT22;3219;51.362;7.074;2023-04-15T14:56:14;9.60;99.90
6373;DHT22;3219;51.362;7.074;2023-04-15T14:58:41;9.50;99.90
6373;DHT22;3219;51.362;7.074;2023-04-15T15:01:09;9.50;99.90
6373;DHT22;3219;51.362;7.074;2023-04-15T15:03:36;9.50;99.90
6373;DHT22;3219;51.362;7.074;2023-04-15T15:06:04;9.40;99.90
6373;DHT22;3219;51.362;7.074;2023-04-15T15:08:30;9.40;99.90
6373;DHT22;3219;51.362;7.074;2023-04-15T15:10:57;9.40;99.90
6373;DHT22;3219;51.362;7.074;2023-04-15T15:13:24;9.40;99.90
6373;DHT22;3219;51.362;7.074;2023-04-15T15:15:51;9.30;99.90
6373;DHT22;3219;51.362;7.074;2023-04-15T15:18:19;9.30;99.90
6373;DHT22;3219;51.362;7.074;2023-04-15T15:20:46;9.30;99.90
6373;DHT22;3219;51.362;7.074;2023-04-15T15:23:13;9.30;99.90
6373;DHT22;3219;51.362;7.074;2023-04-15T15:25:40;9.30;99.90
6373;DHT22;3219;51.362;7.074;2023-04-15T15:28:07;9.30;99.90
6373;DHT22;3219;51.362;7.074;2023-04-15T15:30:34;9.20;99.90
6373;DHT22;3219;51.362;7.074;2023-04-15T15:33:00;9.20;99.90
6373;DHT22;3219;51.362;7.074;2023-04-15T15:35:28;9.20;99.90
6373;DHT22;3219;51.362;7.074;2023-04-15T15:37:55;9.20;99.90
6373;DHT22;3219;51.362;7.074;2023-04-15T15:40:22;9.20;99.90
6373;DHT22;3219;51.362;7.074;2023-04-15T15:42:49;9.20;99.90
6373;DHT22;3219;51.362;7.074;2023-04-15T15:45:16;9.10;99.90
6373;DHT22;3219;51.362;7.074;2023-04-15T15:47:43;9.00;99.90
6373;DHT22;3219;51.362;7.074;2023-04-15T15:50:11;9.00;99.90
6373;DHT22;3219;51.362;7.074;2023-04-15T15:52:39;9.00;99.90
6373;DHT22;3219;51.362;7.074;2023-04-15T15:55:07;8.90;99.90
6373;DHT22;3219;51.362;7.074;2023-04-15T15:57:33;8.90;99.90
6373;DHT22;3219;51.362;7.074;2023-04-15T16:00:01;9.00;99.90
6373;DHT22;3219;51.362;7.074;2023-04-15T16:02:28;8.90;99.90
6373;DHT22;3219;51.362;7.074;2023-04-15T16:04:56;8.80;99.90
6373;DHT22;3219;51.362;7.074;2023-04-15T16:07:23;8.80;99.90
6373;DHT22;3219;51.362;7.074;2023-04-15T16:09:51;8.80;99.90
6373;DHT22;3219;51.362;7.074;2023-04-15T16:12:18;8.70;99.90
6373;DHT22;3219;51.362;7.074;2023-04-15T16:14:45;8.80;99.90
6373;DHT22;3219;51.362;7.074;2023-04-15T16:17:12;8.70;99.90